Time;durP1;ratioP1;P1;durP2;ratioP2;P2;SDS_P1;SDS_P2;PMS_P1;PMS_P2;Temp;Humidity;BMP_temperature;BMP_pressure;BME280_temperature;BME280_humidity;BME280_pressure;Samples;Min_cycle;Max_cycle;Signal;HPM_P1;HPM_P2
2021/06/05 00:00:43;;;;;;;9.68;6.08;;;;;;;15.10;59.72;100653.83;1693373;82;21024;-86
2021/06/05 00:03:11;;;;;;;9.13;6.65;;;;;;;15.08;59.75;100651.35;1701354;80;21028;-85
2021/06/05 00:05:46;;;;;;;9.65;5.97;;;;;;;15.06;59.78;100645.90;1703765;80;21066;-88
2021/06/05 00:08:16;;;;;;;10.70;5.85;;;;;;;15.06;59.98;100651.27;1703817;83;20990;-86
2021/06/05 00:10:49;;;;;;;8.83;6.85;;;;;;;15.02;59.86;100637.96;1666597;85;21114;-86
2021/06/05 00:13:21;;;;;;;14.00;6.40;;;;;;;14.98;59.83;100641.58;1695618;82;20978;-84
2021/06/05 00:15:49;;;;;;;15.85;6.35;;;;;;;14.92;60.07;100641.08;1690246;84;21910;-86
2021/06/05 00:18:18;;;;;;;9.03;6.62;;;;;;;14.88;60.07;100646.05;1662984;85;21078;-87
2021/06/05 00:20:45;;;;;;;8.68;6.05;;;;;;;14.85;60.26;100641.61;1685893;83;21566;-89
2021/06/05 00:23:17;;;;;;;12.93;6.40;;;;;;;14.86;60.26;100641.41;1688507;82;21613;-87
2021/06/05 00:25:44;;;;;;;4.92;4.28;;;;;;;14.93;59.83;100638.69;1692413;83;21041;-86
2021/06/05 00:28:11;;;;;;;6.75;3.05;;;;;;;14.94;58.55;100634.98;1637201;86;21056;-88
2021/06/05 00:30:37;;;;;;;4.70;2.97;;;;;;;14.93;56.79;100631.98;1639827;86;21561;-88
2021/06/05 00:33:09;;;;;;;2.95;2.67;;;;;;;14.96;56.21;100631.58;1651844;85;21323;-85
2021/06/05 00:35:37;;;;;;;4.58;4.10;;;;;;;15.01;55.09;100639.80;1655963;85;21338;-88
2021/06/05 00:38:04;;;;;;;7.80;3.83;;;;;;;15.05;56.08;100641.05;1645458;86;21153;-87
2021/06/05 00:40:36;;;;;;;7.20;4.55;;;;;;;15.06;56.31;100635.98;1656301;85;21160;-86
2021/06/05 00:43:05;;;;;;;6.53;4.37;;;;;;;15.06;56.50;100637.84;1645783;86;21070;-86
2021/06/05 00:45:37;;;;;;;4.75;3.65;;;;;;;15.06;56.83;100637.84;1651932;85;21542;-86
2021/06/05 00:48:05;;;;;;;5.05;2.92;;;;;;;15.03;57.07;100643.13;1650042;85;21056;-86
2021/06/05 00:50:33;;;;;;;6.28;3.62;;;;;;;14.96;56.98;100640.44;1645781;86;21024;-87
2021/06/05 00:53:01;;;;;;;4.10;3.65;;;;;;;14.90;57.39;100639.95;1707034;83;21118;-86
2021/06/05 00:55:32;;;;;;;3.30;3.10;;;;;;;14.85;57.36;100641.08;1689645;81;21103;-85
2021/06/05 00:57:58;;;;;;;4.85;3.02;;;;;;;14.79;57.37;100636.56;1708982;83;21064;-85
2021/06/05 01:00:34;;;;;;;6.05;3.05;;;;;;;14.73;57.66;100646.76;1705222;82;20997;-88
2021/06/05 01:03:03;;;;;;;3.05;2.65;;;;;;;14.67;57.54;100636.87;1712424;80;20938;-86
2021/06/05 01:05:36;;;;;;;3.10;2.52;;;;;;;14.59;57.73;100642.75;1708520;82;21079;-87
2021/06/05 01:08:31;;;;;;;2.22;1.92;;;;;;;14.54;57.59;100641.20;1700008;80;21062;-84
2021/06/05 01:11:45;;;;;;;7.83;3.20;;;;;;;14.48;57.92;100643.86;1687433;83;21580;-83
2021/06/05 01:14:48;;;;;;;4.58;2.62;;;;;;;14.39;58.41;100639.21;1704916;83;21084;-84
2021/06/05 01:17:31;;;;;;;5.00;3.62;;;;;;;14.35;58.98;100638.83;1704658;83;21059;-83
2021/06/05 01:20:25;;;;;;;8.10;3.30;;;;;;;14.35;59.67;100635.30;1718789;83;21021;-83
2021/06/05 01:23:13;;;;;;;8.50;3.47;;;;;;;14.28;59.82;100642.02;1690315;81;21636;-83
2021/06/05 01:26:09;;;;;;;4.42;3.55;;;;;;;14.18;60.48;100641.08;1704127;83;21056;-86
2021/06/05 01:28:54;;;;;;;9.10;4.40;;;;;;;14.10;60.98;100639.09;1704902;83;21572;-85
2021/06/05 01:31:29;;;;;;;16.17;4.35;;;;;;;14.03;61.61;100636.39;1681061;83;21025;-85
2021/06/05 01:33:58;;;;;;;5.47;4.97;;;;;;;13.96;62.01;100639.60;1704183;81;21022;-85
2021/06/05 01:36:26;;;;;;;6.45;5.05;;;;;;;13.89;62.22;100639.58;1682448;83;21367;-85
2021/06/05 01:38:57;;;;;;;4.92;4.42;;;;;;;13.88;62.57;100642.45;1704400;83;20962;-83
2021/06/05 01:41:28;;;;;;;5.05;4.55;;;;;;;13.94;62.60;100643.00;1700724;83;21021;-84
2021/06/05 01:43:56;;;;;;;8.95;4.85;;;;;;;13.92;62.66;100636.50;1688718;83;21073;-84
2021/06/05 01:47:31;;;;;;;5.05;4.15;;;;;;;13.88;63.08;100633.08;1799655;78;22944;-83
2021/06/05 01:49:58;;;;;;;8.28;4.80;;;;;;;13.78;63.12;100634.80;1763253;80;21063;-85
2021/06/05 01:52:29;;;;;;;17.05;5.00;;;;;;;13.76;63.39;100646.24;1746428;81;21310;-84
2021/06/05 01:55:08;;;;;;;6.45;4.22;;;;;;;13.72;63.56;100643.66;1705526;81;21024;-83
2021/06/05 01:57:41;;;;;;;6.62;4.90;;;;;;;13.69;63.77;100644.05;1708323;81;21608;-85
2021/06/05 02:00:15;;;;;;;5.20;4.10;;;;;;;13.71;63.80;100640.66;1718029;81;21028;-85
2021/06/05 02:02:52;;;;;;;10.95;4.10;;;;;;;13.77;63.78;100638.01;1639259;85;21581;-87
2021/06/05 02:05:26;;;;;;;9.00;4.80;;;;;;;13.79;63.91;100637.29;1652877;85;21589;-86
2021/06/05 02:07:53;;;;;;;4.95;4.45;;;;;;;13.77;64.17;100642.55;1655340;85;21122;-86
2021/06/05 02:10:26;;;;;;;5.58;3.70;;;;;;;13.73;64.42;100634.09;1656089;85;21122;-85
2021/06/05 02:12:55;;;;;;;8.28;3.85;;;;;;;13.69;64.61;100633.34;1652593;85;21010;-82
2021/06/05 02:15:50;;;;;;;8.43;3.37;;;;;;;13.65;64.80;100638.27;1648431;81;20994;-84
2021/06/05 02:18:22;;;;;;;5.55;3.80;;;;;;;13.67;64.98;100633.53;1654657;85;21029;-83
2021/06/05 02:21:10;;;;;;;5.53;3.50;;;;;;;13.78;64.93;100631.61;1601828;88;21007;-83
2021/06/05 02:23:51;;;;;;;5.37;3.15;;;;;;;13.97;64.81;100626.50;1628672;85;21041;-82
2021/06/05 02:26:22;;;;;;;5.33;3.75;;;;;;;14.18;64.36;100620.13;1612380;87;21141;-83
2021/06/05 02:28:55;;;;;;;9.80;3.47;;;;;;;14.37;63.74;100625.19;1602300;87;21126;-83
2021/06/05 02:31:23;;;;;;;4.85;3.65;;;;;;;14.49;63.40;100620.05;1617382;87;21864;-86
2021/06/05 02:33:54;;;;;;;11.53;3.85;;;;;;;14.63;63.06;100622.23;1626777;85;21579;-84
2021/06/05 02:36:21;;;;;;;12.90;4.50;;;;;;;14.79;62.70;100621.80;1652662;85;21164;-85
2021/06/05 02:38:50;;;;;;;10.88;3.72;;;;;;;15.07;62.26;100619.34;1633757;85;21078;-87
2021/06/05 02:41:21;;;;;;;10.55;3.25;;;;;;;15.43;61.58;100618.00;1644251;86;21061;-86
2021/06/05 02:43:52;;;;;;;7.10;3.15;;;;;;;15.83;60.51;100616.47;1648372;86;21064;-86
2021/06/05 02:46:27;;;;;;;4.08;2.62;;;;;;;16.23;59.35;100617.00;1604689;87;21150;-85
2021/06/05 02:49:04;;;;;;;7.40;4.20;;;;;;;16.58;58.41;100617.05;1633095;86;21263;-87
2021/06/05 02:51:41;;;;;;;5.10;3.35;;;;;;;16.91;57.49;100615.39;1617002;87;21178;-86
2021/06/05 02:54:08;;;;;;;3.95;2.80;;;;;;;17.28;56.79;100616.20;1614971;86;21603;-86
2021/06/05 02:56:36;;;;;;;6.75;2.95;;;;;;;17.52;56.03;100619.04;1649618;84;21631;-87
2021/06/05 02:59:06;;;;;;;5.25;3.05;;;;;;;17.53;55.69;100616.63;1680971;84;21366;-85
2021/06/05 03:01:34;;;;;;;8.78;4.00;;;;;;;17.37;56.00;100611.88;1658857;85;21115;-88
2021/06/05 03:04:02;;;;;;;4.53;4.12;;;;;;;17.16;56.52;100611.80;1644576;85;20974;-83
2021/06/05 03:06:30;;;;;;;7.17;3.60;;;;;;;16.96;57.06;100620.12;1638843;83;21634;-86
2021/06/05 03:08:58;;;;;;;4.90;4.40;;;;;;;16.76;57.73;100610.33;1622275;87;21065;-86
2021/06/05 03:11:28;;;;;;;5.85;4.17;;;;;;;16.59;58.45;100618.15;1642461;83;21068;-84
2021/06/05 03:13:57;;;;;;;6.47;4.17;;;;;;;16.42;58.87;100615.19;1630675;85;21557;-78
2021/06/05 03:16:24;;;;;;;6.35;3.95;;;;;;;16.28;59.47;100619.87;1648989;86;22222;-84
2021/06/05 03:18:52;;;;;;;5.17;4.15;;;;;;;16.14;59.93;100619.16;1634492;85;21088;-86
2021/06/05 03:21:21;;;;;;;7.03;4.60;;;;;;;16.03;61.07;100623.89;1653465;86;21496;-90
2021/06/05 03:23:50;;;;;;;7.83;4.50;;;;;;;15.92;62.26;100627.27;1672240;84;20970;-90
2021/06/05 03:26:20;;;;;;;7.90;4.85;;;;;;;15.84;62.66;100618.95;1672035;84;21039;-94
2021/06/05 03:28:49;;;;;;;9.83;5.53;;;;;;;15.80;62.68;100622.27;1684154;84;20983;-79
2021/06/05 03:31:21;;;;;;;6.85;6.25;;;;;;;15.81;62.76;100623.93;1659464;85;21053;-83
2021/06/05 03:33:49;;;;;;;12.70;5.35;;;;;;;15.94;62.77;100621.97;1674380;84;21033;-85
2021/06/05 03:36:21;;;;;;;10.23;6.75;;;;;;;16.13;62.40;100621.53;1671285;84;21616;-82
2021/06/05 03:38:48;;;;;;;10.43;6.60;;;;;;;16.53;62.18;100619.85;1670845;84;21057;-85
2021/06/05 03:41:19;;;;;;;10.80;6.42;;;;;;;17.30;60.46;100611.41;1681158;84;21057;-82
2021/06/05 03:43:49;;;;;;;9.50;5.53;;;;;;;18.29;58.61;100614.31;1674735;84;21061;-81
2021/06/05 03:46:16;;;;;;;4.65;4.20;;;;;;;19.29;55.59;100611.16;1678742;82;20966;-83
2021/06/05 03:48:42;;;;;;;5.80;4.35;;;;;;;20.28;52.52;100609.98;1665860;84;21285;-82
2021/06/05 03:51:10;;;;;;;5.12;3.90;;;;;;;20.99;49.78;100610.23;1667183;84;21029;-82
2021/06/05 03:53:39;;;;;;;4.40;3.58;;;;;;;21.42;48.67;100605.08;1688137;84;21100;-83
2021/06/05 03:56:07;;;;;;;5.08;3.52;;;;;;;21.73;47.57;100603.52;1674211;83;21085;-82
2021/06/05 03:58:40;;;;;;;4.28;3.42;;;;;;;22.04;46.95;100607.05;1676636;84;21052;-83
2021/06/05 04:01:23;;;;;;;7.03;3.30;;;;;;;22.45;45.83;100603.34;1659686;85;21767;-82
2021/06/05 04:03:50;;;;;;;5.62;3.30;;;;;;;22.65;45.10;100599.41;1587105;89;21121;-85
2021/06/05 04:06:21;;;;;;;4.60;3.58;;;;;;;22.88;44.57;100600.07;1617157;87;21108;-82
2021/06/05 04:08:53;;;;;;;3.50;3.20;;;;;;;22.97;44.46;100603.92;1611685;87;21127;-77
2021/06/05 04:11:23;;;;;;;4.15;3.30;;;;;;;23.07;43.62;100601.27;1617957;86;21060;-78
2021/06/05 04:13:50;;;;;;;4.00;2.52;;;;;;;23.04;43.89;100597.74;1617338;87;21593;-78
2021/06/05 04:16:17;;;;;;;5.67;3.15;;;;;;;23.18;44.03;100595.89;1607968;87;21614;-80
2021/06/05 04:18:45;;;;;;;4.67;2.35;;;;;;;23.45;43.47;100598.41;1613099;87;21596;-80
2021/06/05 04:21:19;;;;;;;2.75;1.92;;;;;;;23.68;43.03;100595.22;1614911;87;21569;-79
2021/06/05 04:23:47;;;;;;;3.35;1.90;;;;;;;23.90;42.21;100590.92;1626443;86;21058;-78
2021/06/05 04:26:15;;;;;;;2.40;2.20;;;;;;;24.01;42.17;100589.55;1634543;86;21056;-78
2021/06/05 04:28:44;;;;;;;3.77;2.47;;;;;;;23.96;41.75;100591.75;1642197;84;21032;-79
2021/06/05 04:31:11;;;;;;;2.80;2.33;;;;;;;23.77;41.73;100587.34;1632019;86;21078;-79
2021/06/05 04:33:39;;;;;;;3.55;2.08;;;;;;;23.67;42.78;100589.48;1631774;86;21105;-79
2021/06/05 04:36:13;;;;;;;5.40;1.95;;;;;;;23.74;42.23;100590.59;1619047;87;21165;-80
2021/06/05 04:38:42;;;;;;;3.33;1.92;;;;;;;23.76;42.12;100586.25;1612811;86;21071;-78
2021/06/05 04:41:12;;;;;;;5.83;2.35;;;;;;;23.83;41.87;100583.56;1638782;86;21045;-79
2021/06/05 04:43:40;;;;;;;4.53;2.55;;;;;;;23.92;41.33;100590.63;1631859;86;21096;-80
2021/06/05 04:46:12;;;;;;;2.42;2.17;;;;;;;24.11;41.03;100582.77;1630565;86;21434;-79
2021/06/05 04:48:40;;;;;;;5.92;1.50;;;;;;;24.35;40.67;100580.27;1645833;85;21061;-79
2021/06/05 04:51:06;;;;;;;2.65;2.30;;;;;;;24.53;39.94;100574.03;1637803;85;21037;-79
2021/06/05 04:53:37;;;;;;;4.55;2.33;;;;;;;24.61;39.86;100571.53;1645084;86;21071;-79
2021/06/05 04:56:04;;;;;;;1.72;1.62;;;;;;;24.70;38.96;100569.63;1636897;85;21005;-80
2021/06/05 04:58:31;;;;;;;3.15;1.40;;;;;;;24.70;38.84;100566.91;1638552;85;21040;-79
2021/06/05 05:00:59;;;;;;;5.80;2.00;;;;;;;24.49;39.32;100565.00;1640550;85;21076;-80
2021/06/05 05:03:28;;;;;;;5.40;2.05;;;;;;;24.31;39.06;100567.48;1620658;87;21053;-79
2021/06/05 05:06:00;;;;;;;3.05;1.85;;;;;;;24.24;39.29;100569.12;1621212;86;21112;-79
2021/06/05 05:08:27;;;;;;;4.35;2.15;;;;;;;24.07;39.78;100578.93;1626481;86;21022;-80
2021/06/05 05:10:55;;;;;;;7.62;1.98;;;;;;;23.69;40.50;100571.53;1615620;87;21069;-80
2021/06/05 05:13:33;;;;;;;4.47;1.62;;;;;;;23.24;40.57;100571.70;1605811;87;21512;-81
2021/06/05 05:16:03;;;;;;;4.33;1.90;;;;;;;22.88;41.29;100573.70;1616878;87;21157;-81
2021/06/05 05:18:31;;;;;;;2.40;1.77;;;;;;;22.50;42.72;100576.22;1616155;87;21055;-87
2021/06/05 05:21:02;;;;;;;4.25;2.12;;;;;;;22.35;42.81;100566.88;1618319;86;21547;-81
2021/06/05 05:23:29;;;;;;;2.20;1.98;;;;;;;22.30;42.95;100569.58;1636390;86;21108;-79
2021/06/05 05:26:01;;;;;;;2.95;1.95;;;;;;;22.19;43.01;100567.00;1637178;85;21063;-82
2021/06/05 05:28:28;;;;;;;1.37;1.10;;;;;;;22.08;43.92;100567.48;1657264;85;21089;-79
2021/06/05 05:30:59;;;;;;;4.80;1.30;;;;;;;22.17;43.70;100561.86;1668663;84;21505;-83
2021/06/05 05:33:26;;;;;;;4.28;1.42;;;;;;;22.06;43.84;100562.86;1669860;84;21635;-80
2021/06/05 05:35:55;;;;;;;2.67;1.57;;;;;;;21.95;43.44;100564.11;1678482;83;21015;-81
2021/06/05 05:38:25;;;;;;;4.12;1.40;;;;;;;21.84;43.87;100552.89;1684512;83;21041;-81
2021/06/05 05:40:52;;;;;;;5.37;1.90;;;;;;;21.83;44.13;100555.86;1680845;83;21118;-85
2021/06/05 05:43:18;;;;;;;6.50;2.42;;;;;;;21.75;44.19;100553.08;1684999;83;21041;-74
2021/06/05 05:45:45;;;;;;;6.65;1.62;;;;;;;21.82;44.53;100555.05;1677101;83;21272;-80
2021/06/05 05:48:13;;;;;;;1.98;1.50;;;;;;;22.00;44.50;100552.50;1684770;83;21546;-80
2021/06/05 05:50:44;;;;;;;3.17;2.00;;;;;;;22.18;44.06;100551.27;1669120;83;21057;-80
2021/06/05 05:53:10;;;;;;;4.28;1.10;;;;;;;22.50;43.59;100554.49;1679671;83;21378;-80
2021/06/05 05:55:38;;;;;;;3.08;1.27;;;;;;;22.89;42.85;100548.72;1669652;83;21068;-81
2021/06/05 05:58:10;;;;;;;2.27;1.00;;;;;;;23.25;41.43;100548.87;1641201;85;21092;-79
2021/06/05 06:00:39;;;;;;;1.45;0.80;;;;;;;23.56;41.03;100547.02;1640207;86;21294;-84
2021/06/05 06:03:07;;;;;;;2.17;0.42;;;;;;;23.81;39.62;100543.55;1675927;84;21597;-83
2021/06/05 06:05:36;;;;;;;1.95;0.70;;;;;;;23.89;39.01;100533.48;1673177;84;21657;-73
2021/06/05 06:08:05;;;;;;;1.00;0.75;;;;;;;24.01;38.88;100536.47;1664623;85;21076;-74
2021/06/05 06:10:34;;;;;;;1.57;0.55;;;;;;;24.16;37.78;100537.81;1678724;84;21075;-74
2021/06/05 06:13:01;;;;;;;1.95;0.30;;;;;;;23.85;37.26;100497.01;1686957;83;21558;-75
2021/06/05 06:15:29;;;;;;;3.83;0.60;;;;;;;24.15;37.03;100521.22;1690818;83;20996;-76
2021/06/05 06:17:59;;;;;;;4.03;0.60;;;;;;;24.29;35.90;100522.81;1691025;83;20985;-74
2021/06/05 06:20:34;;;;;;;0.93;0.30;;;;;;;24.55;35.31;100522.80;1663916;83;21002;-78
2021/06/05 06:23:01;;;;;;;2.55;0.98;;;;;;;24.68;34.58;100514.84;1673449;83;21035;-74
2021/06/05 06:25:33;;;;;;;1.20;0.40;;;;;;;24.79;34.75;100514.78;1673856;84;21618;-76
2021/06/05 06:27:58;;;;;;;1.25;1.07;;;;;;;24.81;34.00;100505.80;1662974;84;21055;-73
2021/06/05 06:30:33;;;;;;;0.98;0.40;;;;;;;24.83;34.16;100504.97;1672245;84;21039;-74
2021/06/05 06:33:02;;;;;;;2.27;0.65;;;;;;;24.79;35.28;100502.52;1663729;84;21068;-75
2021/06/05 06:35:30;;;;;;;1.05;0.47;;;;;;;24.77;34.33;100506.06;1675222;84;21677;-72
2021/06/05 06:37:58;;;;;;;1.50;0.50;;;;;;;24.75;34.54;100501.45;1670902;84;21063;-74
2021/06/05 06:40:30;;;;;;;3.05;0.68;;;;;;;24.75;34.12;100498.20;1660921;84;21600;-74
2021/06/05 06:42:56;;;;;;;2.87;0.55;;;;;;;24.69;34.30;100497.92;1653011;85;21113;-74
2021/06/05 06:45:24;;;;;;;2.37;0.78;;;;;;;24.76;33.87;100508.55;1681023;84;21023;-73
2021/06/05 06:47:53;;;;;;;2.58;0.70;;;;;;;24.72;34.04;100503.39;1703342;82;21038;-75
2021/06/05 06:50:23;;;;;;;4.00;0.70;;;;;;;24.47;34.06;100507.25;1712468;82;21077;-74
2021/06/05 06:52:51;;;;;;;1.42;0.30;;;;;;;24.18;34.49;100511.67;1715394;82;21042;-75
2021/06/05 06:55:21;;;;;;;1.65;0.30;;;;;;;24.07;34.54;100504.05;1708838;82;21018;-75
2021/06/05 06:57:48;;;;;;;2.47;0.33;;;;;;;24.11;35.41;100506.52;1703460;82;21568;-73
2021/06/05 07:00:23;;;;;;;1.15;0.30;;;;;;;24.42;33.97;100495.55;1708910;82;21105;-76
2021/06/05 07:02:50;;;;;;;3.62;0.60;;;;;;;24.56;33.16;100496.61;1704130;82;21057;-78
2021/06/05 07:05:16;;;;;;;3.98;0.23;;;;;;;24.63;32.45;100490.31;1706198;82;21038;-74
2021/06/05 07:07:44;;;;;;;1.27;0.30;;;;;;;24.75;32.72;100492.74;1701165;82;20997;-73
2021/06/05 07:10:13;;;;;;;0.45;0.20;;;;;;;24.94;32.06;100482.02;1715547;82;21070;-76
2021/06/05 07:12:40;;;;;;;5.15;0.55;;;;;;;24.97;31.17;100485.53;1708714;83;21010;-79
2021/06/05 07:15:09;;;;;;;1.37;0.20;;;;;;;24.74;32.41;100492.46;1711616;82;21072;-79
2021/06/05 07:17:35;;;;;;;2.95;0.20;;;;;;;24.76;32.10;100487.55;1711117;82;21077;-81
2021/06/05 07:20:05;;;;;;;1.17;0.20;;;;;;;24.91;32.45;100488.58;1712606;83;21659;-80
2021/06/05 07:22:31;;;;;;;1.82;0.37;;;;;;;25.06;31.67;100492.02;1712320;81;21118;-83
2021/06/05 07:24:57;;;;;;;3.20;0.40;;;;;;;25.11;31.87;100493.09;1707125;82;21109;-84
2021/06/05 07:27:23;;;;;;;3.62;0.20;;;;;;;25.06;31.28;100489.85;1711588;82;21500;-76
2021/06/05 07:29:50;;;;;;;2.52;0.23;;;;;;;24.94;32.29;100488.83;1706053;82;21090;-78
2021/06/05 07:32:16;;;;;;;0.82;0.25;;;;;;;24.91;32.45;100489.38;1711099;82;21002;-77
2021/06/05 07:34:44;;;;;;;4.03;0.90;;;;;;;24.95;31.96;100478.17;1704808;82;21030;-77
2021/06/05 07:37:12;;;;;;;2.72;0.20;;;;;;;24.80;31.74;100487.25;1707567;83;21085;-78
2021/06/05 07:39:39;;;;;;;3.30;0.60;;;;;;;24.41;31.78;100487.09;1698922;82;21485;-78
2021/06/05 07:42:08;;;;;;;2.60;0.15;;;;;;;24.07;31.84;100484.99;1697824;82;21006;-80
2021/06/05 07:44:35;;;;;;;1.17;0.20;;;;;;;23.86;32.83;100481.48;1694844;82;21567;-77
2021/06/05 07:47:04;;;;;;;0.68;0.40;;;;;;;23.80;33.17;100477.95;1693870;82;21585;-79
2021/06/05 07:49:37;;;;;;;2.83;0.20;;;;;;;23.71;32.77;100474.11;1701431;82;21039;-77
2021/06/05 07:52:08;;;;;;;2.30;0.20;;;;;;;23.47;32.91;100465.67;1718560;83;21644;-75
2021/06/05 07:54:35;;;;;;;1.67;0.30;;;;;;;23.32;32.84;100469.22;1718898;82;21067;-77
2021/06/05 07:57:04;;;;;;;1.30;0.28;;;;;;;23.20;33.39;100461.84;1715862;82;21034;-78
2021/06/05 07:59:30;;;;;;;1.37;0.20;;;;;;;23.13;33.31;100460.73;1717528;82;21535;-78
2021/06/05 08:01:57;;;;;;;0.20;0.20;;;;;;;23.11;33.31;100454.75;1711965;82;21611;-78
2021/06/05 08:04:24;;;;;;;0.72;0.23;;;;;;;23.14;33.76;100452.86;1695705;82;21566;-77
2021/06/05 08:06:53;;;;;;;3.80;0.25;;;;;;;23.22;33.93;100454.23;1717329;82;21513;-76
2021/06/05 08:09:20;;;;;;;3.10;0.20;;;;;;;23.32;33.77;100448.83;1720112;82;21023;-78
2021/06/05 08:11:46;;;;;;;0.30;0.20;;;;;;;23.42;33.51;100455.62;1714999;82;21042;-78
2021/06/05 08:14:14;;;;;;;1.27;0.30;;;;;;;23.44;33.48;100442.56;1720362;82;21078;-80
2021/06/05 08:16:40;;;;;;;0.82;0.20;;;;;;;23.48;33.11;100446.36;1703005;82;20965;-77
2021/06/05 08:19:11;;;;;;;0.50;0.15;;;;;;;23.47;32.89;100448.83;1703535;82;21066;-76
2021/06/05 08:21:43;;;;;;;5.28;0.42;;;;;;;23.37;32.41;100442.00;1715361;82;21018;-78
2021/06/05 08:24:11;;;;;;;2.20;0.13;;;;;;;23.22;32.92;100446.88;1713332;82;21109;-74
2021/06/05 08:26:38;;;;;;;0.20;0.10;;;;;;;23.14;32.26;100443.34;1708552;82;21105;-79
2021/06/05 08:29:05;;;;;;;2.02;0.20;;;;;;;23.05;32.74;100438.97;1701904;82;21058;-78
2021/06/05 08:31:32;;;;;;;1.57;0.10;;;;;;;23.02;33.54;100427.78;1710588;82;21530;-77
2021/06/05 08:33:59;;;;;;;2.15;0.10;;;;;;;23.12;33.52;100432.73;1711731;82;21648;-78
2021/06/05 08:36:28;;;;;;;1.35;0.20;;;;;;;23.21;32.68;100424.88;1714608;83;21144;-77
2021/06/05 08:38:56;;;;;;;0.90;0.33;;;;;;;23.30;33.20;100416.97;1712750;82;21045;-78
2021/06/05 08:41:31;;;;;;;1.50;0.30;;;;;;;23.43;32.60;100417.82;1716833;82;21023;-77
2021/06/05 08:44:09;;;;;;;2.05;0.10;;;;;;;23.55;32.37;100422.17;1695679;82;21603;-76
2021/06/05 08:46:46;;;;;;;3.67;0.20;;;;;;;23.60;32.52;100419.42;1704252;82;21098;-80
2021/06/05 08:49:25;;;;;;;4.47;0.20;;;;;;;23.59;31.58;100415.09;1701339;82;21071;-79
2021/06/05 08:52:16;;;;;;;1.98;0.20;;;;;;;23.37;31.48;100392.24;1705755;82;21063;-78
2021/06/05 08:54:56;;;;;;;2.15;0.30;;;;;;;23.49;31.44;100418.64;1698954;82;21053;-77
2021/06/05 08:57:41;;;;;;;3.60;0.30;;;;;;;23.44;30.95;100413.19;1699948;82;20969;-79
2021/06/05 09:00:19;;;;;;;1.00;0.40;;;;;;;23.30;31.62;100406.94;1706307;82;21247;-78
2021/06/05 09:02:49;;;;;;;0.55;0.20;;;;;;;23.23;32.13;100406.38;1707078;82;20989;-77
2021/06/05 09:05:23;;;;;;;3.62;0.20;;;;;;;23.22;31.83;100403.93;1715079;82;21625;-76
2021/06/05 09:07:50;;;;;;;1.07;0.20;;;;;;;23.24;31.33;100401.75;1703939;82;21582;-78
2021/06/05 09:10:20;;;;;;;3.08;0.20;;;;;;;23.25;31.66;100405.56;1701352;82;21139;-80
2021/06/05 09:12:47;;;;;;;1.10;0.20;;;;;;;23.28;31.23;100405.55;1716846;82;21075;-77
2021/06/05 09:15:31;;;;;;;0.50;0.28;;;;;;;23.25;31.52;100394.69;1705626;82;21550;-80
2021/06/05 09:18:03;;;;;;;5.78;0.30;;;;;;;23.24;30.49;100397.67;1717175;82;21064;-79
2021/06/05 09:20:40;;;;;;;2.85;0.50;;;;;;;23.24;30.73;100393.05;1710623;82;21109;-76
2021/06/05 09:23:27;;;;;;;2.67;0.30;;;;;;;23.28;31.44;100391.44;1704957;82;21641;-77
2021/06/05 09:25:56;;;;;;;5.35;0.40;;;;;;;23.31;31.92;100380.55;1712060;82;21135;-76
2021/06/05 09:28:30;;;;;;;1.05;0.20;;;;;;;23.34;32.08;100381.38;1699732;82;20992;-78
2021/06/05 09:31:18;;;;;;;1.75;0.60;;;;;;;23.32;32.33;100375.39;1701273;82;20986;-78
2021/06/05 09:33:47;;;;;;;3.52;0.53;;;;;;;23.35;32.60;100379.46;1705199;83;21024;-78
2021/06/05 09:36:35;;;;;;;1.45;0.20;;;;;;;23.34;32.24;100381.38;1707327;82;21052;-78
2021/06/05 09:39:16;;;;;;;2.35;0.30;;;;;;;23.33;32.40;100376.45;1708163;82;21020;-77
2021/06/05 09:41:49;;;;;;;1.85;0.30;;;;;;;23.30;32.42;100372.10;1697947;82;21044;-79
2021/06/05 09:44:27;;;;;;;0.65;0.20;;;;;;;23.34;32.88;100370.50;1709736;82;21052;-80
2021/06/05 09:47:09;;;;;;;3.12;0.30;;;;;;;23.42;32.46;100370.48;1721485;82;21053;-78
2021/06/05 09:49:45;;;;;;;2.47;0.20;;;;;;;23.44;32.08;100365.03;1712408;82;21017;-78
2021/06/05 09:52:15;;;;;;;0.80;0.20;;;;;;;23.37;32.17;100364.49;1714350;82;21042;-78
2021/06/05 09:54:49;;;;;;;5.97;0.42;;;;;;;23.32;31.93;100359.88;1715234;81;21098;-77
2021/06/05 09:57:32;;;;;;;3.60;0.30;;;;;;;23.31;32.34;100357.44;1725213;81;22209;-79
2021/06/05 10:00:29;;;;;;;1.98;0.40;;;;;;;23.41;32.46;100370.20;1717478;82;21563;-79
2021/06/05 10:03:32;;;;;;;0.82;0.28;;;;;;;23.50;32.04;100359.85;1729022;81;21535;-77
2021/06/05 10:06:24;;;;;;;1.05;0.33;;;;;;;23.64;31.29;100356.56;1716382;82;22243;-78
2021/06/05 10:08:51;;;;;;;2.20;0.30;;;;;;;23.67;31.20;100358.20;1726286;81;20980;-77
2021/06/05 10:11:37;;;;;;;3.17;0.72;;;;;;;23.65;30.79;100363.09;1726469;82;21057;-76
2021/06/05 10:14:17;;;;;;;5.45;0.33;;;;;;;23.59;31.17;100359.31;1734486;81;21613;-77
2021/06/05 10:17:00;;;;;;;1.60;0.23;;;;;;;23.49;31.46;100361.52;1720639;81;21085;-79
2021/06/05 10:19:50;;;;;;;0.68;0.30;;;;;;;23.33;31.56;100360.69;1721135;82;21610;-79
2021/06/05 10:22:18;;;;;;;1.85;0.30;;;;;;;23.23;32.13;100356.63;1724406;81;21061;-79
2021/06/05 10:24:55;;;;;;;1.40;0.40;;;;;;;23.10;32.73;100355.27;1721243;82;21057;-79
2021/06/05 10:27:32;;;;;;;4.62;0.57;;;;;;;22.98;33.07;100362.82;1715108;81;21710;-79
2021/06/05 10:30:07;;;;;;;1.75;0.88;;;;;;;22.84;33.47;100360.63;1729060;82;21334;-79
2021/06/05 10:32:41;;;;;;;3.35;0.70;;;;;;;22.74;34.12;100363.34;1725738;81;22186;-80
2021/06/05 10:35:21;;;;;;;12.15;1.02;;;;;;;22.67;34.40;100358.70;1724966;81;21124;-79
2021/06/05 10:37:48;;;;;;;1.75;0.80;;;;;;;22.62;35.08;100364.12;1717752;81;21631;-77
2021/06/05 10:40:22;;;;;;;3.58;0.53;;;;;;;22.56;35.14;100366.01;1729806;82;21005;-79
2021/06/05 10:42:52;;;;;;;2.12;0.47;;;;;;;22.49;35.54;100357.28;1718846;81;21061;-78
2021/06/05 10:45:38;;;;;;;0.88;0.40;;;;;;;22.45;35.53;100365.18;1695983;82;20949;-77
2021/06/05 10:48:35;;;;;;;1.32;0.42;;;;;;;22.43;35.64;100355.65;1686112;83;21040;-77
2021/06/05 10:51:10;;;;;;;5.33;1.02;;;;;;;22.38;35.80;100353.75;1679941;83;21054;-79
2021/06/05 10:53:59;;;;;;;0.70;0.70;;;;;;;22.37;35.75;100352.09;1677245;84;21544;-80
2021/06/05 10:56:38;;;;;;;3.87;1.10;;;;;;;22.37;36.34;100351.30;1683823;83;21526;-78
2021/06/05 10:59:37;;;;;;;3.47;1.02;;;;;;;22.46;35.89;100344.27;1670357;83;20986;-78
2021/06/05 11:02:04;;;;;;;0.88;0.60;;;;;;;22.54;35.41;100339.66;1669389;84;21609;-80
2021/06/05 11:04:41;;;;;;;1.32;0.60;;;;;;;22.64;35.78;100348.36;1675218;84;20990;-78
2021/06/05 11:07:20;;;;;;;3.15;0.60;;;;;;;22.78;35.19;100343.25;1685258;83;21022;-78
2021/06/05 11:09:54;;;;;;;1.40;0.50;;;;;;;22.82;34.98;100332.92;1634168;86;21551;-78
2021/06/05 11:12:33;;;;;;;2.40;0.78;;;;;;;22.92;34.11;100337.02;1685933;84;21057;-78
2021/06/05 11:15:04;;;;;;;3.58;0.85;;;;;;;22.93;34.67;100332.39;1670893;84;21077;-78
2021/06/05 11:17:40;;;;;;;1.40;0.40;;;;;;;22.94;34.22;100331.29;1676667;84;20983;-77
2021/06/05 11:20:10;;;;;;;;;;;;;;;22.97;34.77;100333.47;1687886;82;21085;-78
2021/06/05 11:23:02;;;;;;;1.20;0.80;;;;;;;23.01;33.86;100323.69;1681733;84;20173;-72
2021/06/05 11:25:41;;;;;;;1.17;0.65;;;;;;;22.97;34.80;100321.80;1670271;83;21178;-79
2021/06/05 11:28:32;;;;;;;1.15;0.55;;;;;;;23.05;34.80;100331.59;1675315;84;21515;-82
2021/06/05 11:31:23;;;;;;;0.82;0.62;;;;;;;23.22;34.59;100331.87;1668438;83;21619;-82
2021/06/05 11:33:49;;;;;;;5.35;0.42;;;;;;;23.29;32.91;100324.27;1679231;83;21149;-81
2021/06/05 11:36:40;;;;;;;1.52;0.62;;;;;;;23.31;32.52;100320.72;1673536;84;21066;-79
2021/06/05 11:39:24;;;;;;;4.00;0.42;;;;;;;23.15;33.09;100290.55;1684359;83;21306;-80
2021/06/05 11:41:57;;;;;;;2.83;0.70;;;;;;;23.36;32.97;100312.56;1675714;84;21061;-79
2021/06/05 11:44:34;;;;;;;1.35;1.25;;;;;;;23.35;33.27;100315.00;1677586;83;21566;-77
2021/06/05 11:47:21;;;;;;;4.87;0.90;;;;;;;23.35;33.03;100306.84;1685680;84;21054;-80
2021/06/05 11:49:56;;;;;;;;;;;;;;;23.31;33.43;100309.29;1693807;84;21604;-81